الصفحة الرئيسية
METAR-TAF:

METAR-TAF

مطار :

Yap, مايكرونيزيا

دائرة عرض: 09-29N, خط طول: 138-05E, ارتفاع: 28 متر

مراقبة الطقس الحالي

تاريخ ووقت الإصدار 16 دقيقة قبل الساعة 00:50UTC
ريح 5 عقدةمن اتجاهات متغيرة
درجة الحرارة 31°درجة مئوية
الرطوبة 71%
ضغط 1011 hPa
الرؤية: 19.3 كم
غيوم قليلة على ارتفاع 30000 قدم

METAR: PTYA 240050Z VRB05KT 12SM FEW300 31/25 A2986 RMK SLP113 T03090253

زمن: 11:06 (01:06 UTC)

توقعات

تاريخ ووقت الإصدار 1ساعة و 32 دقيقة قبل الساعة 23:34UTC
التوقعات صالحة من24 الساعة 00 UTC إلى 24 الساعة 24 UTC
ريح 5 عقدةمن اتجاهات متغيرة
الرؤية: 10 كم
غيوم قليلة على ارتفاع 1600 قدم
من 24 الساعة 0400 UTC
ريح 8 عقدة من الشرق
الرؤية: 10 كم
غيوم قليلة على ارتفاع 1600 قدم
غيوم متفرقة على ارتفاع 4000 قدم
غيوم متفرقة على ارتفاع 12000 قدم
زخات في الجوار

TAF: PTYA 232334Z 2400/2424 VRB05KT P6SM FEW016 FM240400 10008KT P6SM VCSH FEW016 SCT040 SCT120

أرصاد الطقس والتوقعات من أكثر من 4000 مطار (تقارير الطقس للمطار METAR والتنبؤ بالطقس بالمطارTAF).

المحطات المتاحة هي النقط الصفراء والحمراء على الخريطة.

حرك المؤشر فوق النقطة لمعرفة اسم المحطة.

ثم انقر لمعرفة أرصاد وتوقعات الطقس.

لتغيير الخارطة: اضغط على الأزرار الخضراء مع رمز الصليب الأسود للتكبير. على الزر الأخضر مع شرطة للتصغير، أو على الأسهم الخضراء للخرائط المجاورة.


METAR-TAF: